createdAt,value
2023-03-11T00:00:54.209Z,70.80
2023-03-11T00:03:29.090Z,70.90
2023-03-11T00:06:04.468Z,71.00
2023-03-11T00:08:38.372Z,71.10
2023-03-11T00:11:13.847Z,71.00
2023-03-11T00:13:47.377Z,71.10
2023-03-11T00:16:21.314Z,71.00
2023-03-11T00:18:55.125Z,71.80
2023-03-11T00:21:29.116Z,71.10
2023-03-11T00:24:04.055Z,71.00
2023-03-11T00:26:39.013Z,71.00
2023-03-11T00:29:12.675Z,71.00
2023-03-11T00:31:46.528Z,71.00
2023-03-11T00:34:20.257Z,71.00
2023-03-11T00:36:53.777Z,71.00
2023-03-11T00:39:27.324Z,71.10
2023-03-11T00:42:02.422Z,70.90
2023-03-11T00:44:36.227Z,71.00
2023-03-11T00:47:12.295Z,70.90
2023-03-11T00:49:46.165Z,71.10
2023-03-11T00:52:20.476Z,71.00
2023-03-11T00:54:54.234Z,71.00
2023-03-11T00:57:32.013Z,70.90
2023-03-11T01:00:07.511Z,70.90
2023-03-11T01:02:41.117Z,70.90
2023-03-11T01:05:15.761Z,70.80
2023-03-11T01:07:49.709Z,70.80
2023-03-11T01:10:25.300Z,70.70
2023-03-11T01:13:00.580Z,70.90
2023-03-11T01:15:37.412Z,70.80
2023-03-11T01:18:11.490Z,70.90
2023-03-11T01:20:45.406Z,70.80
2023-03-11T01:23:23.272Z,70.80
2023-03-11T01:25:58.001Z,70.70
2023-03-11T01:28:33.294Z,70.60
2023-03-11T01:31:07.285Z,70.50
2023-03-11T01:33:41.742Z,70.50
2023-03-11T01:36:15.683Z,70.60
2023-03-11T01:38:49.569Z,70.50
2023-03-11T01:41:23.477Z,70.50
2023-03-11T01:43:59.580Z,70.50
2023-03-11T01:47:00.316Z,70.50
2023-03-11T01:49:34.524Z,70.60
2023-03-11T01:52:09.687Z,70.50
2023-03-11T01:54:44.224Z,70.60
2023-03-11T01:57:18.234Z,70.60
2023-03-11T01:59:59.140Z,70.60
2023-03-11T02:02:39.056Z,70.50
2023-03-11T02:05:13.290Z,70.60
2023-03-11T02:07:48.097Z,70.40
2023-03-11T02:10:22.457Z,70.50
2023-03-11T02:12:56.364Z,71.10
2023-03-11T02:15:32.316Z,70.50
2023-03-11T02:18:08.459Z,70.40
2023-03-11T02:20:50.929Z,70.40
2023-03-11T02:23:31.938Z,70.40
2023-03-11T02:26:12.824Z,70.40
2023-03-11T02:28:51.756Z,70.30
2023-03-11T02:31:27.894Z,70.30
2023-03-11T02:34:07.448Z,70.90
2023-03-11T02:36:43.492Z,70.10
2023-03-11T02:39:17.532Z,70.20
2023-03-11T02:41:51.511Z,70.10
2023-03-11T02:44:27.345Z,70.10
2023-03-11T02:47:02.129Z,70.10
2023-03-11T02:49:37.738Z,70.10
2023-03-11T02:52:11.565Z,70.10
2023-03-11T02:54:45.552Z,70.00
2023-03-11T02:57:19.130Z,70.00
2023-03-11T02:59:54.397Z,70.00
2023-03-11T03:02:28.372Z,70.00
2023-03-11T03:05:02.149Z,70.00
2023-03-11T03:07:35.913Z,69.90
2023-03-11T03:10:12.969Z,69.80
2023-03-11T03:12:46.593Z,69.90
2023-03-11T03:15:21.893Z,69.80
2023-03-11T03:17:55.310Z,69.70
2023-03-11T03:20:29.476Z,69.70
2023-03-11T03:23:03.359Z,69.80
2023-03-11T03:25:37.077Z,69.70
2023-03-11T03:28:10.969Z,69.70
2023-03-11T03:30:46.774Z,69.60
2023-03-11T03:33:20.755Z,69.70
2023-03-11T03:35:54.512Z,69.60
2023-03-11T03:38:28.591Z,69.50
2023-03-11T03:41:02.275Z,69.60
2023-03-11T03:43:36.017Z,69.50
2023-03-11T03:46:11.822Z,69.50
2023-03-11T03:48:45.478Z,69.40
2023-03-11T03:51:19.915Z,69.40
2023-03-11T03:53:53.656Z,69.30
2023-03-11T03:56:27.321Z,69.40
2023-03-11T03:59:00.858Z,69.30
2023-03-11T04:01:35.991Z,69.40
2023-03-11T04:04:09.734Z,69.30
2023-03-11T04:06:45.689Z,69.30
2023-03-11T04:09:19.969Z,69.20
2023-03-11T04:11:53.712Z,69.30
2023-03-11T04:14:27.381Z,69.30
2023-03-11T04:17:03.086Z,69.40
2023-03-11T04:19:37.394Z,69.40
2023-03-11T04:22:10.842Z,69.30
2023-03-11T04:24:44.669Z,69.20
2023-03-11T04:27:18.497Z,69.10
2023-03-11T04:29:52.432Z,69.10
2023-03-11T04:32:28.864Z,69.00
2023-03-11T04:35:02.581Z,69.00
2023-03-11T04:37:36.346Z,69.00
2023-03-11T04:40:12.090Z,69.00
2023-03-11T04:42:46.470Z,69.00
2023-03-11T04:45:20.561Z,69.00
2023-03-11T04:47:55.537Z,68.90
2023-03-11T04:50:29.376Z,68.80
2023-03-11T04:53:03.124Z,68.80
2023-03-11T04:55:37.088Z,68.60
2023-03-11T04:58:11.298Z,68.60
2023-03-11T05:00:44.810Z,68.60
2023-03-11T05:03:19.887Z,68.60
2023-03-11T05:05:56.789Z,68.60
2023-03-11T05:08:31.126Z,68.60
2023-03-11T05:11:05.033Z,68.60
2023-03-11T05:13:38.634Z,68.60
2023-03-11T05:16:13.363Z,68.60
2023-03-11T05:18:48.613Z,68.60
2023-03-11T05:21:22.220Z,68.50
2023-03-11T05:23:56.035Z,68.60
2023-03-11T05:26:30.878Z,68.40
2023-03-11T05:29:04.783Z,68.30
2023-03-11T05:31:39.278Z,68.30
2023-03-11T05:34:14.989Z,68.30
2023-03-11T05:36:49.065Z,68.20
2023-03-11T05:39:23.798Z,68.10
2023-03-11T05:41:58.207Z,68.10
2023-03-11T05:44:32.600Z,68.10
2023-03-11T05:47:06.608Z,68.10
2023-03-11T05:49:41.988Z,68.00
2023-03-11T05:52:15.815Z,67.90
2023-03-11T05:54:52.516Z,67.90
2023-03-11T05:57:26.350Z,67.90
2023-03-11T06:00:00.200Z,67.80
2023-03-11T06:02:34.047Z,67.70
2023-03-11T06:05:13.553Z,67.70
2023-03-11T06:07:47.534Z,67.80
2023-03-11T06:10:21.199Z,67.70
2023-03-11T06:12:54.875Z,67.80
2023-03-11T06:15:28.560Z,67.80
2023-03-11T06:18:02.162Z,67.80
2023-03-11T06:20:38.752Z,67.80
2023-03-11T06:23:12.387Z,67.80
2023-03-11T06:25:47.505Z,67.70
2023-03-11T06:28:21.463Z,67.70
2023-03-11T06:30:57.179Z,67.80
2023-03-11T06:33:31.087Z,67.90
2023-03-11T06:36:08.431Z,67.80
2023-03-11T06:38:42.282Z,67.80
2023-03-11T06:41:17.861Z,67.80
2023-03-11T06:43:51.727Z,67.80
2023-03-11T06:46:25.445Z,67.80
2023-03-11T06:48:59.332Z,67.70
2023-03-11T06:51:35.117Z,67.70
2023-03-11T06:54:09.068Z,67.70
2023-03-11T06:56:42.844Z,67.70
2023-03-11T06:59:17.036Z,67.60
2023-03-11T07:01:51.331Z,67.60
2023-03-11T07:04:24.877Z,67.80
2023-03-11T07:07:00.972Z,67.50
2023-03-11T07:09:34.567Z,67.60
2023-03-11T07:12:09.049Z,67.50
2023-03-11T07:14:42.678Z,67.50
2023-03-11T07:17:16.425Z,67.40
2023-03-11T07:19:50.348Z,67.40
2023-03-11T07:22:25.721Z,67.40
2023-03-11T07:24:59.804Z,67.20
2023-03-11T07:27:33.893Z,67.40
2023-03-11T07:30:09.748Z,67.50
2023-03-11T07:32:43.937Z,67.50
2023-03-11T07:35:17.975Z,67.30
2023-03-11T07:37:53.238Z,67.00
2023-03-11T07:40:26.809Z,66.80
2023-03-11T07:43:00.531Z,66.60
2023-03-11T07:45:34.185Z,66.40
2023-03-11T07:48:08.447Z,66.50
2023-03-11T07:50:41.886Z,66.60
2023-03-11T07:53:17.373Z,66.60
2023-03-11T07:55:56.640Z,66.40
2023-03-11T07:58:31.744Z,66.30
2023-03-11T08:01:09.238Z,66.50
2023-03-11T08:03:43.260Z,66.50
2023-03-11T08:06:20.632Z,66.10
2023-03-11T08:08:55.817Z,65.90
2023-03-11T08:11:32.584Z,65.40
2023-03-11T08:14:06.981Z,65.30
2023-03-11T08:16:42.444Z,65.30
2023-03-11T08:19:16.497Z,65.40
2023-03-11T08:21:50.443Z,65.50
2023-03-11T08:24:25.993Z,65.40
2023-03-11T08:26:59.480Z,65.30
2023-03-11T08:29:33.393Z,65.40
2023-03-11T08:32:08.063Z,65.40
2023-03-11T08:34:41.573Z,65.20
2023-03-11T08:37:15.888Z,65.90
2023-03-11T08:39:51.201Z,65.00
2023-03-11T08:42:24.826Z,64.70
2023-03-11T08:44:58.468Z,64.20
2023-03-11T08:47:36.334Z,64.40
2023-03-11T08:50:16.706Z,64.40
2023-03-11T08:52:50.586Z,64.30
2023-03-11T08:55:27.829Z,64.00
2023-03-11T08:58:01.568Z,64.40
2023-03-11T09:00:35.529Z,65.00
2023-03-11T09:03:10.188Z,65.00
2023-03-11T09:05:43.536Z,64.90
2023-03-11T09:08:17.330Z,64.80
2023-03-11T09:10:52.637Z,64.00
2023-03-11T09:13:27.337Z,62.80
2023-03-11T09:16:01.551Z,62.40
2023-03-11T09:18:35.749Z,62.30
2023-03-11T09:21:09.795Z,61.80
2023-03-11T09:23:44.702Z,61.80
2023-03-11T09:26:20.552Z,60.50
2023-03-11T09:28:54.335Z,60.10
2023-03-11T09:31:27.878Z,60.10
2023-03-11T09:34:02.358Z,59.80
2023-03-11T09:36:36.216Z,59.30
2023-03-11T09:39:10.326Z,60.10
2023-03-11T09:41:58.255Z,60.30
2023-03-11T09:44:41.523Z,60.20
2023-03-11T09:47:39.934Z,60.00
2023-03-11T09:50:34.532Z,59.50
2023-03-11T09:53:28.109Z,58.80
2023-03-11T09:56:05.381Z,58.60
2023-03-11T09:58:45.792Z,59.10
2023-03-11T10:01:28.120Z,58.90
2023-03-11T10:04:13.169Z,58.80
2023-03-11T10:06:49.288Z,58.90
2023-03-11T10:09:39.708Z,58.80
2023-03-11T10:12:35.646Z,58.00
2023-03-11T10:18:37.051Z,57.80
2023-03-11T10:21:22.080Z,57.80
2023-03-11T10:24:16.679Z,58.00
2023-03-11T10:26:58.880Z,57.80
2023-03-11T10:29:45.048Z,57.90
2023-03-11T10:32:30.529Z,58.10
2023-03-11T10:35:18.684Z,58.30
2023-03-11T10:37:59.584Z,58.20
2023-03-11T10:40:40.193Z,57.70
2023-03-11T10:43:18.589Z,57.40
2023-03-11T10:45:53.417Z,57.20
2023-03-11T10:48:28.235Z,56.80
2023-03-11T10:51:18.367Z,56.90
2023-03-11T10:53:55.444Z,56.80
2023-03-11T10:56:32.916Z,56.70
2023-03-11T10:59:25.289Z,56.70
2023-03-11T11:02:02.598Z,56.40
2023-03-11T11:04:41.089Z,56.50
2023-03-11T11:07:32.433Z,56.30
2023-03-11T11:10:20.049Z,56.10
2023-03-11T11:12:59.519Z,55.80
2023-03-11T11:15:36.314Z,56.00
2023-03-11T11:18:23.490Z,55.50
2023-03-11T11:21:07.312Z,55.30
2023-03-11T11:23:49.500Z,55.10
2023-03-11T11:26:27.720Z,55.30
2023-03-11T11:29:14.955Z,55.50
2023-03-11T11:31:49.020Z,55.00
2023-03-11T11:34:35.041Z,54.80
2023-03-11T11:37:14.262Z,53.90
2023-03-11T11:39:54.759Z,54.50
2023-03-11T11:42:33.166Z,54.40
2023-03-11T11:45:17.314Z,54.20
2023-03-11T11:47:57.021Z,54.10
2023-03-11T11:50:36.660Z,53.90
2023-03-11T11:53:25.115Z,53.60
2023-03-11T11:56:00.868Z,53.80
2023-03-11T11:58:36.387Z,53.80
2023-03-11T12:01:20.967Z,53.70
2023-03-11T12:04:33.153Z,53.30
2023-03-11T12:07:31.330Z,52.50
2023-03-11T12:10:24.121Z,53.30
2023-03-11T12:13:36.428Z,53.90
2023-03-11T12:16:25.759Z,53.40
2023-03-11T12:19:05.841Z,53.80
2023-03-11T12:22:15.200Z,54.00
2023-03-11T12:25:19.370Z,53.40
2023-03-11T12:28:02.112Z,53.70
2023-03-11T12:30:44.006Z,54.20
2023-03-11T12:33:28.551Z,53.80
2023-03-11T12:36:04.381Z,53.60
2023-03-11T12:38:42.134Z,53.30
2023-03-11T12:41:37.050Z,52.80
2023-03-11T12:44:34.908Z,53.00
2023-03-11T12:47:27.526Z,52.50
2023-03-11T12:50:39.967Z,52.40
2023-03-11T12:53:20.072Z,52.60
2023-03-11T12:56:09.738Z,53.30
2023-03-11T12:59:32.313Z,52.60
2023-03-11T13:02:29.863Z,51.60
2023-03-11T13:05:19.556Z,52.20
2023-03-11T13:08:05.215Z,52.20
2023-03-11T13:10:42.589Z,52.60
2023-03-11T13:13:41.165Z,52.40
2023-03-11T13:16:42.394Z,51.00
2023-03-11T13:19:50.262Z,50.90
2023-03-11T13:23:00.836Z,51.30
2023-03-11T13:25:41.189Z,50.70
2023-03-11T13:28:59.424Z,51.10
2023-03-11T13:31:56.086Z,50.20
2023-03-11T13:34:45.840Z,51.10
2023-03-11T13:37:36.276Z,51.40
2023-03-11T13:40:24.710Z,51.00
2023-03-11T13:43:05.354Z,50.80
2023-03-11T13:45:41.678Z,51.00
2023-03-11T13:48:21.887Z,51.50
2023-03-11T13:51:03.489Z,51.20
2023-03-11T13:53:46.508Z,50.80
2023-03-11T13:56:28.131Z,50.40
2023-03-11T13:59:17.913Z,50.50
2023-03-11T14:01:53.633Z,50.40
2023-03-11T14:04:32.940Z,50.90
2023-03-11T14:07:25.139Z,50.60
2023-03-11T14:10:22.568Z,49.90
2023-03-11T14:13:18.982Z,49.20
2023-03-11T14:16:05.742Z,49.50
2023-03-11T14:18:42.164Z,49.50
2023-03-11T14:21:19.976Z,49.70
2023-03-11T14:23:56.826Z,49.40
2023-03-11T14:26:36.251Z,49.30
2023-03-11T14:29:16.833Z,49.40
2023-03-11T14:31:50.626Z,49.10
2023-03-11T14:34:28.223Z,49.10
2023-03-11T14:37:05.508Z,49.10
2023-03-11T14:39:53.404Z,49.00
2023-03-11T14:42:33.449Z,48.70
2023-03-11T14:45:15.775Z,49.10
2023-03-11T14:47:59.136Z,49.60
2023-03-11T14:50:37.263Z,49.50
2023-03-11T14:53:19.572Z,49.50
2023-03-11T14:56:00.398Z,49.20
2023-03-11T14:58:39.214Z,48.80
2023-03-11T15:01:19.024Z,49.10
2023-03-11T15:03:58.720Z,49.10
2023-03-11T15:06:35.355Z,48.70
2023-03-11T15:09:15.177Z,48.60
2023-03-11T15:11:55.357Z,48.80
2023-03-11T15:14:31.691Z,48.60
2023-03-11T15:17:41.311Z,48.70
2023-03-11T15:20:29.757Z,47.80
2023-03-11T15:23:05.442Z,47.50
2023-03-11T15:25:41.019Z,47.80
2023-03-11T15:28:26.518Z,47.50
2023-03-11T15:31:37.340Z,47.00
2023-03-11T15:34:25.587Z,46.80
2023-03-11T15:37:21.674Z,47.40
2023-03-11T15:39:59.781Z,47.20
2023-03-11T15:42:33.997Z,47.60
2023-03-11T15:45:19.515Z,47.80
2023-03-11T15:47:54.512Z,47.50
2023-03-11T15:50:43.043Z,48.00
2023-03-11T15:53:27.362Z,47.50
2023-03-11T15:56:11.796Z,47.50
2023-03-11T15:58:45.494Z,47.60
2023-03-11T16:01:28.760Z,47.70
2023-03-11T16:04:02.381Z,47.70
2023-03-11T16:06:35.958Z,47.80
2023-03-11T16:09:10.041Z,47.80
2023-03-11T16:11:44.925Z,48.10
2023-03-11T16:14:21.850Z,48.00
2023-03-11T16:16:56.986Z,48.20
2023-03-11T16:19:30.942Z,48.00
2023-03-11T16:22:06.100Z,48.10
2023-03-11T16:24:39.705Z,48.10
2023-03-11T16:27:18.429Z,48.00
2023-03-11T16:29:53.199Z,47.80
2023-03-11T16:32:28.571Z,47.90
2023-03-11T16:35:02.468Z,48.00
2023-03-11T16:37:36.322Z,48.00
2023-03-11T16:40:14.651Z,47.90
2023-03-11T16:42:49.253Z,47.90
2023-03-11T16:45:22.986Z,47.90
2023-03-11T16:47:58.112Z,47.90
2023-03-11T16:50:31.945Z,48.00
2023-03-11T16:53:05.768Z,47.90
2023-03-11T16:55:39.566Z,47.80
2023-03-11T16:58:13.581Z,48.00
2023-03-11T17:00:48.372Z,48.20
2023-03-11T17:03:23.985Z,48.30
2023-03-11T17:06:05.601Z,48.00
2023-03-11T17:08:39.359Z,47.90
2023-03-11T17:11:18.519Z,48.00
2023-03-11T17:13:54.220Z,47.80
2023-03-11T17:16:29.355Z,47.90
2023-03-11T17:19:04.594Z,47.90
2023-03-11T17:21:38.788Z,48.00
2023-03-11T17:24:15.190Z,48.20
2023-03-11T17:26:49.013Z,48.20
2023-03-11T17:29:22.866Z,48.20
2023-03-11T17:31:56.744Z,48.00
2023-03-11T17:34:32.070Z,48.20
2023-03-11T17:37:05.853Z,48.20
2023-03-11T17:39:40.088Z,48.30
2023-03-11T17:42:13.935Z,48.20
2023-03-11T17:44:51.798Z,48.20
2023-03-11T17:47:27.450Z,48.60
2023-03-11T17:50:03.534Z,48.80
2023-03-11T17:52:36.987Z,48.70
2023-03-11T17:55:11.672Z,48.80
2023-03-11T17:57:46.093Z,49.00
2023-03-11T18:00:21.315Z,49.00
2023-03-11T18:02:55.157Z,49.40
2023-03-11T18:05:30.644Z,49.70
2023-03-11T18:08:05.682Z,49.80
2023-03-11T18:10:39.344Z,50.00
2023-03-11T18:13:13.221Z,50.10
2023-03-11T18:15:47.307Z,50.30
2023-03-11T18:18:21.117Z,50.40
2023-03-11T18:20:56.591Z,50.40
2023-03-11T18:23:33.342Z,50.40
2023-03-11T18:26:10.496Z,50.60
2023-03-11T18:28:44.763Z,50.70
2023-03-11T18:31:22.051Z,50.70
2023-03-11T18:34:00.966Z,50.80
2023-03-11T18:36:38.374Z,50.90
2023-03-11T18:39:14.218Z,50.80
2023-03-11T18:41:48.298Z,50.90
2023-03-11T18:44:23.574Z,50.90
2023-03-11T18:46:57.069Z,51.10
2023-03-11T18:49:30.740Z,51.00
2023-03-11T18:52:06.695Z,51.10
2023-03-11T18:54:41.247Z,51.20
2023-03-11T18:57:15.204Z,51.20
2023-03-11T18:59:50.135Z,51.20
2023-03-11T19:02:24.069Z,51.30
2023-03-11T19:04:58.176Z,51.30
2023-03-11T19:07:33.613Z,51.30
2023-03-11T19:10:08.409Z,51.30
2023-03-11T19:12:44.682Z,51.90
2023-03-11T19:15:18.919Z,51.80
2023-03-11T19:18:05.878Z,51.50
2023-03-11T19:20:41.095Z,51.70
2023-03-11T19:23:17.843Z,51.80
2023-03-11T19:26:02.523Z,51.80
2023-03-11T19:28:37.784Z,51.90
2023-03-11T19:31:12.063Z,52.00
2023-03-11T19:33:50.067Z,52.00
2023-03-11T19:36:23.807Z,52.00
2023-03-11T19:39:00.052Z,52.10
2023-03-11T19:41:34.275Z,52.10
2023-03-11T19:44:08.261Z,52.10
2023-03-11T19:46:42.068Z,52.10
2023-03-11T19:49:15.834Z,52.20
2023-03-11T19:51:50.801Z,52.20
2023-03-11T19:54:25.690Z,52.30
2023-03-11T19:56:59.325Z,52.30
2023-03-11T19:59:33.173Z,52.40
2023-03-11T20:02:07.254Z,52.50
2023-03-11T20:04:43.135Z,52.60
2023-03-11T20:07:17.436Z,52.60
2023-03-11T20:09:52.835Z,52.70
2023-03-11T20:12:26.697Z,52.80
2023-03-11T20:15:00.426Z,52.90
2023-03-11T20:17:34.129Z,53.00
2023-03-11T20:20:09.741Z,53.10
2023-03-11T20:22:43.958Z,53.20
2023-03-11T20:25:19.808Z,53.00
2023-03-11T20:27:53.431Z,52.90
2023-03-11T20:30:29.546Z,52.80
2023-03-11T20:33:04.385Z,53.00
2023-03-11T20:35:38.455Z,53.10
2023-03-11T20:38:16.112Z,53.20
2023-03-11T20:40:57.080Z,53.10
2023-03-11T20:43:31.075Z,53.00
2023-03-11T20:46:06.625Z,53.00
2023-03-11T20:48:41.456Z,53.00
2023-03-11T20:51:21.017Z,53.00
2023-03-11T20:53:54.915Z,53.00
2023-03-11T20:56:30.937Z,52.90
2023-03-11T20:59:07.381Z,52.90
2023-03-11T21:01:41.168Z,53.00
2023-03-11T21:04:16.668Z,53.00
2023-03-11T21:06:52.540Z,53.00
2023-03-11T21:09:27.565Z,53.10
2023-03-11T21:12:02.918Z,53.10
2023-03-11T21:14:36.683Z,53.20
2023-03-11T21:17:10.836Z,53.40
2023-03-11T21:19:45.183Z,53.50
2023-03-11T21:22:18.842Z,53.60
2023-03-11T21:24:53.992Z,53.60
2023-03-11T21:27:29.430Z,53.80
2023-03-11T21:30:04.293Z,53.80
2023-03-11T21:32:38.109Z,54.00
2023-03-11T21:35:11.856Z,54.00
2023-03-11T21:37:46.943Z,53.90
2023-03-11T21:40:21.532Z,53.90
2023-03-11T21:42:57.067Z,54.00
2023-03-11T21:45:30.881Z,54.20
2023-03-11T21:48:06.741Z,54.30
2023-03-11T21:50:42.020Z,54.30
2023-03-11T21:53:16.282Z,54.40
2023-03-11T21:55:51.658Z,54.40
2023-03-11T21:58:29.897Z,54.30
2023-03-11T22:01:04.333Z,54.20
2023-03-11T22:03:39.287Z,54.20
2023-03-11T22:06:14.257Z,54.30
2023-03-11T22:08:48.190Z,54.40
2023-03-11T22:11:22.101Z,54.40
2023-03-11T22:14:00.567Z,54.50
2023-03-11T22:16:34.469Z,54.50
2023-03-11T22:19:10.153Z,54.40
2023-03-11T22:21:44.264Z,54.40
2023-03-11T22:24:17.818Z,54.50
2023-03-11T22:26:52.943Z,54.50
2023-03-11T22:29:28.079Z,54.60
2023-03-11T22:32:01.802Z,54.50
2023-03-11T22:34:35.544Z,54.50
2023-03-11T22:37:09.721Z,54.50
2023-03-11T22:39:43.563Z,55.20
2023-03-11T22:42:17.433Z,54.70
2023-03-11T22:44:52.850Z,54.70
2023-03-11T22:47:26.707Z,54.70
2023-03-11T22:50:00.748Z,54.80
2023-03-11T22:52:34.279Z,54.90
2023-03-11T22:55:09.022Z,55.00
2023-03-11T22:57:42.772Z,55.00
2023-03-11T23:00:23.832Z,55.20
2023-03-11T23:02:58.468Z,55.20
2023-03-11T23:05:33.082Z,55.40
2023-03-11T23:08:06.757Z,55.50
2023-03-11T23:10:42.714Z,55.50
2023-03-11T23:13:17.333Z,55.50
2023-03-11T23:15:52.897Z,55.50
2023-03-11T23:18:26.457Z,55.30
2023-03-11T23:21:00.707Z,55.10
2023-03-11T23:23:34.387Z,55.10
2023-03-11T23:26:10.596Z,55.00
2023-03-11T23:28:47.110Z,55.10
2023-03-11T23:31:25.256Z,55.10
2023-03-11T23:33:59.264Z,55.20
2023-03-11T23:36:33.305Z,55.10
2023-03-11T23:39:07.138Z,55.10
2023-03-11T23:41:40.810Z,55.20
2023-03-11T23:44:14.848Z,55.00
2023-03-11T23:46:50.236Z,54.90
2023-03-11T23:49:26.469Z,54.80
2023-03-11T23:52:00.207Z,54.80
2023-03-11T23:54:33.757Z,54.80
2023-03-11T23:57:07.717Z,54.90
2023-03-11T23:59:41.268Z,54.90
